Time;durP1;ratioP1;P1;durP2;ratioP2;P2;SDS_P1;SDS_P2;PMS_P1;PMS_P2;Temp;Humidity;BMP_temperature;BMP_pressure;BME280_temperature;BME280_humidity;BME280_pressure;Samples;Min_cycle;Max_cycle;Signal;HPM_P1;HPM_P2
2023/01/01 00:00:47;;;;;;;11.25;3.42;;;;;;;-146.25;63.38;52410.78;2077410;28;40254;-72
2023/01/01 00:01:51;;;;;;;16.50;4.55;;;;;;;-146.25;63.60;52416.84;2079604;28;20831;-72
2023/01/01 00:02:53;;;;;;;13.18;3.35;;;;;;;-146.25;62.86;52402.66;2080729;28;20764;-71
2023/01/01 00:03:58;;;;;;;7.85;3.13;;;;;;;-146.25;63.00;52433.06;2080221;28;36381;-73
2023/01/01 00:05:00;;;;;;;14.25;3.20;;;;;;;-146.25;62.75;52384.41;2080396;28;20115;-72
2023/01/01 00:06:10;;;;;;;11.85;3.45;;;;;;;-146.25;62.07;52406.72;2078317;28;38580;-72
2023/01/01 00:07:12;;;;;;;10.27;3.85;;;;;;;-146.25;62.16;52408.75;2079841;28;36221;-72
2023/01/01 00:08:14;;;;;;;12.02;3.30;;;;;;;-146.25;62.69;52416.84;2080730;28;20175;-72
2023/01/01 00:10:37;;;;;;;11.77;4.03;;;;;;;-146.25;62.83;52424.97;2080654;28;20108;-71
2023/01/01 00:11:39;;;;;;;15.25;3.70;;;;;;;-146.25;62.24;52416.84;2070761;28;42074;-72
2023/01/01 00:12:41;;;;;;;13.27;3.45;;;;;;;-146.25;62.15;52420.91;2063486;28;39367;-72
2023/01/01 00:13:43;;;;;;;12.80;3.70;;;;;;;-146.25;62.48;52427.00;2063355;28;36289;-72
2023/01/01 00:14:45;;;;;;;10.82;3.97;;;;;;;-146.25;62.61;52420.91;2068510;28;40099;-72
2023/01/01 00:15:47;;;;;;;9.93;4.28;;;;;;;-146.25;63.00;52384.41;2080626;28;20910;-72
2023/01/01 00:16:49;;;;;;;9.98;4.22;;;;;;;-146.25;63.63;52396.59;2079337;28;40122;-72
2023/01/01 00:17:51;;;;;;;15.30;4.15;;;;;;;-146.25;63.59;52445.25;2079866;28;40212;-71
2023/01/01 00:18:52;;;;;;;11.40;3.55;;;;;;;-146.25;63.62;52392.53;2080207;28;20042;-71
2023/01/01 00:19:54;;;;;;;15.57;4.22;;;;;;;-146.25;63.76;52380.38;2079077;28;40604;-71
2023/01/01 00:21:25;;;;;;;11.35;4.00;;;;;;;-146.25;64.49;52386.44;2079762;28;39356;-72
2023/01/01 00:22:30;;;;;;;12.15;3.70;;;;;;;-146.25;64.70;52439.16;2071421;28;30484;-72
2023/01/01 00:23:52;;;;;;;9.63;3.45;;;;;;;-146.25;65.38;52364.13;2071424;28;20061;-72
2023/01/01 00:24:54;;;;;;;10.55;4.35;;;;;;;-146.25;65.44;52451.31;2071357;28;20042;-72
2023/01/01 00:25:55;;;;;;;16.30;4.35;;;;;;;-146.25;66.03;52422.94;2078838;28;38248;-72
2023/01/01 00:26:57;;;;;;;12.00;3.53;;;;;;;-146.25;66.05;52418.88;2080522;28;20037;-72
2023/01/01 00:27:59;;;;;;;9.40;3.28;;;;;;;-146.25;65.89;52400.63;2071172;28;33719;-72
2023/01/01 00:29:02;;;;;;;12.77;4.20;;;;;;;-146.25;66.35;52420.91;2070226;28;20034;-72
2023/01/01 00:30:05;;;;;;;11.73;4.82;;;;;;;-146.25;66.63;52412.81;2079665;28;37434;-72
2023/01/01 00:31:15;;;;;;;10.13;3.95;;;;;;;-146.25;66.24;52427.00;2080667;28;20043;-72
2023/01/01 00:32:16;;;;;;;12.45;3.85;;;;;;;-146.25;66.82;52398.59;2080316;28;20045;-72
2023/01/01 00:33:25;;;;;;;14.55;4.13;;;;;;;-146.25;66.91;52424.97;2080074;28;38224;-73
2023/01/01 00:34:27;;;;;;;12.57;4.20;;;;;;;-146.25;67.36;52388.47;2079474;28;33581;-72
2023/01/01 00:35:32;;;;;;;13.68;4.22;;;;;;;-146.25;66.75;52439.16;2081185;28;20807;-72
2023/01/01 00:36:34;;;;;;;12.30;3.92;;;;;;;-146.25;67.61;52412.81;2079048;28;37680;-72
2023/01/01 00:37:35;;;;;;;15.50;4.20;;;;;;;-146.25;67.08;52414.84;2078431;28;39840;-72
2023/01/01 00:38:43;;;;;;;11.55;4.20;;;;;;;-146.25;67.24;52396.59;2079884;28;36516;-72
2023/01/01 00:39:45;;;;;;;9.88;3.85;;;;;;;-146.25;67.46;52412.81;2079963;28;40005;-72
2023/01/01 00:40:46;;;;;;;14.35;5.30;;;;;;;-146.25;66.33;52420.91;2078075;28;31647;-72
2023/01/01 00:41:48;;;;;;;14.10;4.80;;;;;;;-146.25;66.44;52394.56;2079922;28;38477;-72
2023/01/01 00:42:50;;;;;;;13.30;4.50;;;;;;;-146.25;67.00;52396.59;2070848;28;32784;-71
2023/01/01 00:43:52;;;;;;;13.38;4.30;;;;;;;-146.25;66.79;52382.38;2070584;28;30337;-72
2023/01/01 00:44:53;;;;;;;16.80;4.72;;;;;;;-146.25;66.50;52410.78;2079669;28;40250;-72
2023/01/01 00:45:55;;;;;;;10.77;4.28;;;;;;;-146.25;66.78;52408.75;2078353;28;40526;-72
2023/01/01 00:46:59;;;;;;;11.70;4.70;;;;;;;-146.25;67.07;52449.31;2078655;28;38055;-72
2023/01/01 00:48:04;;;;;;;9.80;4.28;;;;;;;-146.25;66.89;52392.53;2079771;28;39352;-72
2023/01/01 00:49:05;;;;;;;11.20;4.03;;;;;;;-146.25;66.83;52400.63;2080145;28;20805;-72
2023/01/01 00:50:08;;;;;;;14.63;5.40;;;;;;;-146.25;66.96;52424.97;2080786;28;20827;-71
2023/01/01 00:51:10;;;;;;;15.85;5.13;;;;;;;-146.25;66.71;52394.56;2079561;28;40182;-72
2023/01/01 00:52:12;;;;;;;11.07;5.13;;;;;;;-146.25;66.56;52380.38;2080524;28;20041;-72
2023/01/01 00:53:14;;;;;;;13.75;5.40;;;;;;;-146.25;66.44;52420.91;2078950;28;37558;-72
2023/01/01 00:54:16;;;;;;;14.45;5.40;;;;;;;-146.25;67.10;52400.63;2079666;28;40890;-72
2023/01/01 00:55:20;;;;;;;13.07;5.00;;;;;;;-146.25;66.22;52433.06;2079172;28;39645;-72
2023/01/01 00:56:21;;;;;;;12.95;5.07;;;;;;;-146.25;65.47;52388.47;2079551;28;20030;-72
2023/01/01 00:57:23;;;;;;;15.80;5.80;;;;;;;-146.25;65.73;52412.81;2077892;28;24757;-72
2023/01/01 00:58:25;;;;;;;12.75;4.95;;;;;;;-146.25;65.39;52453.34;2079445;28;38052;-71
2023/01/01 00:59:27;;;;;;;14.45;5.20;;;;;;;-146.25;65.08;52414.84;2079193;28;39724;-71
2023/01/01 01:00:29;;;;;;;12.77;4.80;;;;;;;-146.25;65.64;52406.72;2079345;28;36085;-73
2023/01/01 01:01:33;;;;;;;12.45;5.80;;;;;;;-146.25;65.29;52388.47;2080352;28;20929;-73
2023/01/01 01:02:35;;;;;;;13.30;5.50;;;;;;;-146.25;64.75;52429.03;2080206;28;28649;-73
2023/01/01 01:03:38;;;;;;;10.38;5.18;;;;;;;-146.25;64.53;52431.06;2071007;28;36243;-73
2023/01/01 01:04:40;;;;;;;12.30;5.50;;;;;;;-146.25;65.17;52392.53;2070988;28;31612;-72
2023/01/01 01:05:41;;;;;;;13.38;5.10;;;;;;;-146.25;65.31;52431.06;2073166;28;38916;-74
2023/01/01 01:06:43;;;;;;;10.30;5.50;;;;;;;-146.25;65.53;52437.13;2077922;28;35602;-72
2023/01/01 01:07:45;;;;;;;14.63;5.32;;;;;;;-146.25;65.21;52368.19;2078706;28;39789;-72
2023/01/01 01:08:47;;;;;;;12.35;5.35;;;;;;;-146.25;65.19;52412.81;2079121;28;20056;-72
2023/01/01 01:09:52;;;;;;;12.45;5.97;;;;;;;-146.25;65.02;52372.25;2079562;28;20069;-72
2023/01/01 01:11:06;;;;;;;15.93;5.60;;;;;;;-146.25;64.31;52390.50;2078031;28;40882;-72
2023/01/01 01:12:07;;;;;;;9.07;5.25;;;;;;;-146.25;64.22;52390.50;2068682;28;20050;-72
2023/01/01 01:13:17;;;;;;;13.82;5.60;;;;;;;-146.25;64.24;52394.56;2071392;28;40547;-71
2023/01/01 01:14:19;;;;;;;12.15;5.63;;;;;;;-146.25;64.95;52431.06;2079091;28;36054;-73
2023/01/01 01:15:21;;;;;;;11.00;5.40;;;;;;;-146.25;65.54;52412.81;2070714;28;38607;-74
2023/01/01 01:16:31;;;;;;;12.02;5.35;;;;;;;-146.25;65.01;52406.72;2070971;28;39592;-74
2023/01/01 01:17:33;;;;;;;13.30;5.82;;;;;;;-146.25;64.94;52398.59;2079961;28;34705;-73
2023/01/01 01:18:36;;;;;;;13.80;5.88;;;;;;;-146.25;65.42;52382.38;2078838;28;39790;-73
2023/01/01 01:19:40;;;;;;;13.02;6.22;;;;;;;-146.25;65.63;52396.59;2078724;28;39972;-73
2023/01/01 01:20:50;;;;;;;12.23;5.25;;;;;;;-146.25;64.85;52412.81;2071569;28;37430;-73
2023/01/01 01:21:52;;;;;;;12.73;5.82;;;;;;;-146.25;64.27;52410.78;2079634;28;20042;-73
2023/01/01 01:22:54;;;;;;;14.10;6.28;;;;;;;-146.25;64.04;52420.91;2078829;28;41712;-73
2023/01/01 01:24:02;;;;;;;13.05;6.10;;;;;;;-146.25;64.63;52414.84;2079115;28;38367;-73
2023/01/01 01:25:06;;;;;;;12.70;5.40;;;;;;;-146.25;63.99;52414.84;2079525;28;40643;-72
2023/01/01 01:26:17;;;;;;;11.40;6.05;;;;;;;-146.25;64.57;52406.72;2078590;28;33769;-72
2023/01/01 01:27:19;;;;;;;17.52;6.78;;;;;;;-146.25;64.48;52402.66;2070942;28;20046;-72
2023/01/01 01:28:21;;;;;;;14.00;6.20;;;;;;;-146.25;64.88;52388.47;2071370;28;40053;-72
2023/01/01 01:29:22;;;;;;;15.45;6.80;;;;;;;-146.25;64.94;52412.81;2078998;28;37894;-72
2023/01/01 01:30:26;;;;;;;12.60;6.55;;;;;;;-146.25;65.07;52424.97;2079782;28;29498;-72
2023/01/01 01:31:32;;;;;;;15.38;6.70;;;;;;;-146.25;64.73;52398.59;2080626;28;20034;-71
2023/01/01 01:32:36;;;;;;;13.32;6.85;;;;;;;-146.25;64.83;52429.03;2078465;28;35678;-72
2023/01/01 01:33:38;;;;;;;16.50;7.10;;;;;;;-146.25;64.18;52370.22;2079007;28;37535;-72
2023/01/01 01:34:41;;;;;;;13.20;7.03;;;;;;;-146.25;64.36;52437.13;2078410;28;39384;-73
2023/01/01 01:35:50;;;;;;;13.73;7.13;;;;;;;-146.25;64.05;52384.41;2079599;28;37877;-71
2023/01/01 01:36:52;;;;;;;12.40;7.22;;;;;;;-146.25;64.16;52427.00;2079201;28;40795;-72
2023/01/01 01:37:55;;;;;;;15.18;7.70;;;;;;;-146.25;64.63;52386.44;2079762;28;36314;-73
2023/01/01 01:38:56;;;;;;;12.55;7.78;;;;;;;-146.25;64.62;52398.59;2070286;28;36972;-72
2023/01/01 01:39:58;;;;;;;16.75;7.43;;;;;;;-146.25;64.45;52427.00;2070959;28;37111;-71
2023/01/01 01:41:03;;;;;;;12.75;7.75;;;;;;;-146.25;64.23;52412.81;2070355;28;41433;-72
2023/01/01 01:42:07;;;;;;;15.95;7.88;;;;;;;-146.25;64.38;52356.03;2068533;28;41208;-72
2023/01/01 01:43:33;;;;;;;16.17;8.20;;;;;;;-146.25;65.05;52392.53;2079532;28;37107;-72
2023/01/01 01:44:44;;;;;;;17.63;8.40;;;;;;;-146.25;64.93;52396.59;2080363;28;20038;-72
2023/01/01 01:45:46;;;;;;;;;;;;;;;-146.25;65.10;52422.94;2080071;28;37397;-72
2023/01/01 01:46:48;;;;;;;20.83;8.93;;;;;;;-146.25;65.49;52431.06;2069870;28;42277;-72
2023/01/01 01:47:57;;;;;;;14.48;8.55;;;;;;;-146.25;64.94;52427.00;2070604;28;40282;-72
2023/01/01 01:49:27;;;;;;;14.07;7.73;;;;;;;-146.25;65.60;52431.06;2071274;28;38285;-72
2023/01/01 01:50:34;;;;;;;14.65;8.77;;;;;;;-146.25;65.42;52418.88;2079113;28;42554;-72
2023/01/01 01:51:39;;;;;;;18.52;9.38;;;;;;;-146.25;65.54;52422.94;2078485;28;39149;-72
2023/01/01 01:53:19;;;;;;;14.98;8.52;;;;;;;-146.25;65.48;52416.84;2077601;28;37951;-72
2023/01/01 01:54:26;;;;;;;19.75;9.77;;;;;;;-146.25;66.02;52388.47;2061989;28;20920;-72
2023/01/01 01:55:31;;;;;;;17.13;10.02;;;;;;;-146.25;65.61;52390.50;2067026;28;42256;-72
2023/01/01 01:56:46;;;;;;;19.75;10.30;;;;;;;-146.25;65.73;52380.38;2062340;28;40278;-72
2023/01/01 01:57:48;;;;;;;31.75;18.02;;;;;;;-146.25;65.37;52410.78;2073195;28;38489;-72
2023/01/01 01:58:49;;;;;;;19.88;10.30;;;;;;;-146.25;65.42;52396.59;2078922;28;39123;-72
2023/01/01 01:59:55;;;;;;;26.33;10.18;;;;;;;-146.25;65.78;52376.31;2079116;28;20165;-73
2023/01/01 02:00:58;;;;;;;18.10;9.73;;;;;;;-146.25;65.52;52384.41;2062927;28;38777;-73
2023/01/01 02:02:00;;;;;;;20.85;10.80;;;;;;;-146.25;65.39;52388.47;2062864;28;40040;-73
2023/01/01 02:03:13;;;;;;;17.90;9.60;;;;;;;-146.25;65.32;52414.84;2070840;28;38204;-72
2023/01/01 02:04:15;;;;;;;19.77;10.52;;;;;;;-146.25;65.48;52368.19;2071202;28;21346;-72
2023/01/01 02:05:19;;;;;;;15.65;9.80;;;;;;;-146.25;65.55;52412.81;2071748;28;38180;-73
2023/01/01 02:06:21;;;;;;;29.13;16.73;;;;;;;-146.25;65.65;52431.06;2079122;28;37584;-73
2023/01/01 02:07:26;;;;;;;21.92;12.85;;;;;;;-146.25;65.91;52358.06;2070573;28;39970;-73
2023/01/01 02:08:28;;;;;;;16.95;10.40;;;;;;;-146.25;65.52;52406.72;2072450;28;20785;-73
2023/01/01 02:09:30;;;;;;;17.15;9.80;;;;;;;-146.25;65.79;52400.63;2077557;28;41129;-72
2023/01/01 02:10:33;;;;;;;18.88;10.70;;;;;;;-146.25;66.18;52390.50;2078186;28;40242;-72
2023/01/01 02:11:34;;;;;;;19.35;10.05;;;;;;;-146.25;65.77;52380.38;2078139;28;34799;-73
2023/01/01 02:12:36;;;;;;;19.50;10.27;;;;;;;-146.25;65.26;52392.53;2078128;28;41638;-72
2023/01/01 02:13:38;;;;;;;18.70;9.25;;;;;;;-146.25;nan;52420.91;2080138;28;35265;-72
2023/01/01 02:14:40;;;;;;;15.73;9.85;;;;;;;-146.25;66.25;52404.69;2078495;28;39156;-72
2023/01/01 02:16:18;;;;;;;19.80;10.13;;;;;;;-146.25;66.23;52404.69;2078391;28;44292;-72
2023/01/01 02:17:43;;;;;;;14.65;9.65;;;;;;;-146.25;66.26;52431.06;2071735;28;38766;-73
2023/01/01 02:19:28;;;;;;;17.08;9.70;;;;;;;-146.25;66.94;52380.38;2078352;28;40836;-72
2023/01/01 02:20:52;;;;;;;17.77;9.80;;;;;;;-146.25;67.53;52441.19;2072495;28;38906;-72
2023/01/01 02:22:20;;;;;;;17.25;10.02;;;;;;;-146.25;67.19;52420.91;2073500;28;20034;-72
2023/01/01 02:23:45;;;;;;;16.83;9.40;;;;;;;-146.25;67.47;52424.97;2072345;28;41552;-72
2023/01/01 02:25:16;;;;;;;18.95;10.18;;;;;;;-146.25;67.82;52453.34;2071868;28;38212;-71
2023/01/01 02:26:56;;;;;;;16.92;10.43;;;;;;;-146.25;67.89;52362.13;2065450;28;42958;-73
2023/01/01 02:28:18;;;;;;;18.58;10.40;;;;;;;-146.25;68.71;52420.91;2080319;28;20042;-71
2023/01/01 02:29:37;;;;;;;16.20;9.50;;;;;;;-146.25;68.87;52416.84;2080141;28;37382;-71
2023/01/01 02:30:43;;;;;;;22.30;12.95;;;;;;;-146.25;70.00;52388.47;2080452;28;40499;-73
2023/01/01 02:31:59;;;;;;;15.98;10.10;;;;;;;-146.25;70.11;52422.94;2071647;28;42016;-73
2023/01/01 02:33:08;;;;;;;17.67;10.02;;;;;;;-146.25;70.27;52412.81;2066277;28;42558;-73
2023/01/01 02:34:16;;;;;;;18.33;10.40;;;;;;;-146.25;70.59;52382.38;2060242;28;39866;-73
2023/01/01 02:35:41;;;;;;;16.63;10.20;;;;;;;-146.25;71.18;52386.44;2057901;28;40168;-72
2023/01/01 02:36:51;;;;;;;19.13;10.68;;;;;;;-146.25;71.86;52416.84;2065351;28;39695;-72
2023/01/01 02:38:03;;;;;;;19.27;9.88;;;;;;;-146.25;73.06;52414.84;2063582;28;43240;-73
2023/01/01 02:39:08;;;;;;;19.30;10.77;;;;;;;-146.25;73.18;52406.72;2058256;28;38907;-73
2023/01/01 02:40:10;;;;;;;17.25;9.52;;;;;;;-146.25;72.87;52410.78;2057048;28;40448;-72
2023/01/01 02:41:32;;;;;;;17.33;9.63;;;;;;;-146.25;72.78;52408.75;2064262;28;41795;-73
2023/01/01 02:42:34;;;;;;;19.75;10.40;;;;;;;-146.25;73.32;52435.09;2070621;28;22538;-73
2023/01/01 02:43:41;;;;;;;16.77;9.50;;;;;;;-146.25;73.70;52400.63;2060311;28;42604;-72
2023/01/01 02:44:49;;;;;;;17.50;9.45;;;;;;;-146.25;73.72;52435.09;2066394;28;38239;-72
2023/01/01 02:45:55;;;;;;;14.60;8.48;;;;;;;-146.25;73.23;52394.56;2070559;28;39689;-73
2023/01/01 02:47:05;;;;;;;18.92;9.75;;;;;;;-146.25;73.63;52400.63;2064958;28;41156;-73
2023/01/01 02:48:38;;;;;;;17.45;8.95;;;;;;;-146.25;72.31;52422.94;2065457;28;20167;-73
2023/01/01 02:49:54;;;;;;;12.90;8.48;;;;;;;-146.25;72.81;52408.75;2077655;28;44782;-73
2023/01/01 02:51:03;;;;;;;15.75;8.23;;;;;;;-146.25;73.06;52408.75;2080024;28;37588;-73
2023/01/01 02:52:27;;;;;;;17.38;8.98;;;;;;;-146.25;73.86;52429.03;2074447;28;43109;-73
2023/01/01 02:53:40;;;;;;;17.20;8.52;;;;;;;-146.25;73.92;52416.84;2060583;28;20261;-73
2023/01/01 02:55:02;;;;;;;16.27;8.43;;;;;;;-146.25;72.70;52420.91;2050688;28;43152;-73
2023/01/01 02:56:44;;;;;;;16.63;8.43;;;;;;;-146.25;73.21;52418.88;2061210;28;41339;-73
2023/01/01 03:00:17;;;;;;;16.75;8.23;;;;;;;-146.25;73.63;52396.59;2071854;28;44299;-73
2023/01/01 03:00:52;;;;;;;16.58;7.78;;;;;;;-146.25;73.70;52406.72;2067870;28;41212;-73
2023/01/01 03:02:09;;;;;;;18.85;7.88;;;;;;;-146.25;73.66;52400.63;2065695;28;40110;-73
2023/01/01 03:03:43;;;;;;;16.17;7.95;;;;;;;-146.25;73.24;52416.84;2063357;28;38993;-73
2023/01/01 03:05:09;;;;;;;14.25;7.63;;;;;;;-146.25;72.52;52400.63;2071753;28;38500;-73
2023/01/01 03:06:36;;;;;;;14.40;7.72;;;;;;;-146.25;73.20;52392.53;2073577;28;39509;-73
2023/01/01 03:08:02;;;;;;;18.30;7.95;;;;;;;-146.25;72.94;52435.09;2080476;28;43001;-73
2023/01/01 03:09:40;;;;;;;14.85;7.07;;;;;;;-146.25;73.41;52388.47;2078780;28;33739;-73
2023/01/01 03:10:57;;;;;;;17.05;7.13;;;;;;;-146.25;72.99;52455.38;2071687;28;44035;-71
2023/01/01 03:12:38;;;;;;;14.73;6.97;;;;;;;-146.25;72.63;52420.91;2072390;28;39033;-71
2023/01/01 03:13:57;;;;;;;;;;;;;;;-146.25;73.66;52382.38;2063785;28;43139;-74
2023/01/01 03:15:12;;;;;;;12.90;6.38;;;;;;;-146.25;72.76;52400.63;2071553;28;40055;-71
2023/01/01 03:17:19;;;;;;;15.80;6.80;;;;;;;-146.25;73.70;52457.41;2072411;28;41257;-72
2023/01/01 03:18:32;;;;;;;18.90;7.32;;;;;;;-146.25;73.57;52422.94;2072101;28;40364;-71
2023/01/01 03:19:38;;;;;;;11.32;5.97;;;;;;;-146.25;73.30;52394.56;2073528;28;39120;-71
2023/01/01 03:20:44;;;;;;;15.77;6.60;;;;;;;-146.25;73.31;52420.91;2079102;28;42406;-72
2023/01/01 03:21:58;;;;;;;14.93;6.85;;;;;;;-146.25;73.17;52437.13;2078013;28;40103;-72
2023/01/01 03:23:07;;;;;;;12.75;5.85;;;;;;;-146.25;73.12;52424.97;2065755;28;38825;-72
2023/01/01 03:24:20;;;;;;;13.45;6.32;;;;;;;-146.25;73.03;52368.19;2074331;28;27581;-72
2023/01/01 03:25:31;;;;;;;11.10;5.70;;;;;;;-146.25;73.07;52374.28;2079215;28;42257;-72
2023/01/01 03:26:36;;;;;;;14.02;6.40;;;;;;;-146.25;73.33;52396.59;2067618;28;23902;-72
2023/01/01 03:27:56;;;;;;;12.00;6.00;;;;;;;-146.25;73.54;52422.94;2064208;28;40665;-72
2023/01/01 03:29:00;;;;;;;11.77;6.28;;;;;;;-146.25;73.92;52427.00;2079390;28;40395;-72
2023/01/01 03:30:08;;;;;;;14.65;5.78;;;;;;;-146.25;73.12;52408.75;2071204;28;41749;-73
2023/01/01 03:31:16;;;;;;;12.45;5.40;;;;;;;-146.25;73.09;52406.72;2065283;28;38603;-72
2023/01/01 03:33:12;;;;;;;10.00;5.55;;;;;;;-146.25;72.71;52420.91;2062188;28;20050;-72
2023/01/01 03:34:23;;;;;;;11.68;4.90;;;;;;;-146.25;72.71;52414.84;2068779;28;40200;-73
2023/01/01 03:35:49;;;;;;;12.85;5.90;;;;;;;-146.25;72.50;52372.25;2077218;28;37312;-73
2023/01/01 03:36:59;;;;;;;11.63;5.32;;;;;;;-146.25;72.40;52388.47;2072009;28;34450;-72
2023/01/01 03:38:05;;;;;;;13.05;5.65;;;;;;;-146.25;72.60;52412.81;2075262;28;40003;-73
2023/01/01 03:39:26;;;;;;;12.40;5.95;;;;;;;-146.25;72.80;52392.53;2062346;28;41914;-72
2023/01/01 03:40:31;;;;;;;15.07;5.40;;;;;;;-146.25;72.11;52398.59;2061378;28;38393;-73
2023/01/01 03:41:57;;;;;;;11.40;5.22;;;;;;;-146.25;72.52;52427.00;2063813;28;40033;-73
2023/01/01 03:43:12;;;;;;;10.90;5.30;;;;;;;-146.25;72.74;52433.06;2076123;28;20128;-72
2023/01/01 03:44:19;;;;;;;13.20;5.30;;;;;;;-146.25;72.39;52368.19;2079659;28;42522;-72
2023/01/01 03:45:38;;;;;;;13.48;5.68;;;;;;;-146.25;72.44;52437.13;2077786;28;36925;-72
2023/01/01 03:46:40;;;;;;;11.48;4.95;;;;;;;-146.25;72.07;52441.19;2065881;28;39366;-72
2023/01/01 03:47:42;;;;;;;14.38;5.07;;;;;;;-146.25;71.76;52392.53;2072192;28;40514;-72
2023/01/01 03:48:55;;;;;;;12.57;5.50;;;;;;;-146.25;72.07;52424.97;2079157;28;38305;-72
2023/01/01 03:50:06;;;;;;;13.52;5.40;;;;;;;-146.25;71.81;52414.84;2077408;28;20043;-72
2023/01/01 03:51:22;;;;;;;10.73;4.97;;;;;;;-146.25;71.82;52384.41;2064898;28;25523;-71
2023/01/01 03:52:44;;;;;;;12.38;5.38;;;;;;;-146.25;71.79;52424.97;2051074;28;43678;-72
2023/01/01 03:53:50;;;;;;;10.60;4.78;;;;;;;-146.25;71.31;52447.28;2057960;28;43572;-71
2023/01/01 03:55:15;;;;;;;14.65;5.63;;;;;;;-146.25;70.85;52459.44;2063333;28;39251;-71
2023/01/01 03:56:44;;;;;;;8.70;4.70;;;;;;;-146.25;71.14;52406.72;2063159;28;41487;-71
2023/01/01 03:58:14;;;;;;;12.00;5.07;;;;;;;-146.25;71.10;52441.19;2069254;28;39607;-72
2023/01/01 03:59:26;;;;;;;12.95;5.15;;;;;;;-146.25;70.11;52388.47;2074971;28;40729;-72
2023/01/01 04:00:35;;;;;;;7.65;4.35;;;;;;;-146.25;70.77;52424.97;2071365;28;40994;-72
2023/01/01 04:01:47;;;;;;;9.85;4.75;;;;;;;-146.25;70.29;52386.44;2073594;28;41007;-72
2023/01/01 04:02:58;;;;;;;10.25;4.40;;;;;;;-146.25;70.43;52376.31;2071144;28;41970;-72
2023/01/01 04:04:02;;;;;;;9.45;4.38;;;;;;;-146.25;69.92;52390.50;2073531;28;39359;-72
2023/01/01 04:05:06;;;;;;;8.82;4.05;;;;;;;-146.25;70.01;52435.09;2070971;28;39621;-71
2023/01/01 04:06:10;;;;;;;12.45;4.35;;;;;;;-146.25;70.13;52437.13;2072021;28;40082;-72
2023/01/01 04:07:13;;;;;;;9.27;4.20;;;;;;;-146.25;70.12;52410.78;2066407;28;37415;-72
2023/01/01 04:08:17;;;;;;;10.45;4.10;;;;;;;-146.25;69.50;52441.19;2062395;28;43438;-72
2023/01/01 04:09:28;;;;;;;11.23;3.95;;;;;;;-146.25;69.48;52418.88;2062994;28;35123;-71
2023/01/01 04:10:34;;;;;;;8.73;3.70;;;;;;;-146.25;69.69;52386.44;2063967;28;40721;-72
2023/01/01 04:13:04;;;;;;;10.68;3.53;;;;;;;-146.25;69.24;52368.19;2075016;28;43130;-73
2023/01/01 04:14:07;;;;;;;9.82;3.47;;;;;;;-146.25;68.86;52388.47;2080092;28;24187;-72
2023/01/01 04:15:09;;;;;;;8.52;3.45;;;;;;;-146.25;69.30;52412.81;2077649;28;38808;-72
2023/01/01 04:16:11;;;;;;;9.93;3.40;;;;;;;-146.25;68.77;52378.34;2069256;28;37386;-72
2023/01/01 04:17:13;;;;;;;8.80;3.17;;;;;;;-146.25;68.89;52402.66;2069612;28;39385;-72
2023/01/01 04:18:15;;;;;;;9.55;3.20;;;;;;;-146.25;68.14;52416.84;2079926;28;37237;-73
2023/01/01 04:19:16;;;;;;;9.00;3.47;;;;;;;-146.25;68.76;52376.31;2079380;28;43925;-72
2023/01/01 04:20:19;;;;;;;11.68;4.75;;;;;;;-146.25;68.86;52382.38;2080067;28;37338;-73
2023/01/01 04:21:21;;;;;;;11.02;4.25;;;;;;;-146.25;68.68;52473.63;2080082;28;40950;-72
2023/01/01 04:22:23;;;;;;;8.32;3.42;;;;;;;-146.25;68.66;52422.94;2080311;28;20056;-72
2023/01/01 04:23:24;;;;;;;13.05;4.03;;;;;;;-146.25;68.93;52372.25;2078901;28;39741;-73
2023/01/01 04:24:29;;;;;;;8.55;3.35;;;;;;;-146.25;68.53;52378.34;2079510;28;38303;-72
2023/01/01 04:25:33;;;;;;;9.65;3.15;;;;;;;-146.25;68.60;52400.63;2079530;28;28859;-73
2023/01/01 04:26:35;;;;;;;10.65;3.33;;;;;;;-146.25;68.54;52380.38;2079098;28;40738;-72
2023/01/01 04:27:39;;;;;;;9.38;3.08;;;;;;;-146.25;67.86;52368.19;2079253;28;41604;-73
2023/01/01 04:28:44;;;;;;;10.18;3.22;;;;;;;-146.25;67.98;52406.72;2079921;28;38108;-72
2023/01/01 04:29:46;;;;;;;9.82;2.95;;;;;;;-146.25;67.60;52388.47;2079401;28;39794;-72
2023/01/01 04:30:47;;;;;;;7.32;2.97;;;;;;;-146.25;66.73;52445.25;2079626;28;40550;-72
2023/01/01 04:31:49;;;;;;;6.68;3.05;;;;;;;-146.25;66.63;52400.63;2079961;28;38756;-72
2023/01/01 04:32:53;;;;;;;5.50;2.78;;;;;;;-146.25;66.83;52386.44;2079766;28;39965;-72
2023/01/01 04:33:55;;;;;;;8.50;2.63;;;;;;;-146.25;67.24;52388.47;2079804;28;32194;-72
2023/01/01 04:34:57;;;;;;;8.77;2.60;;;;;;;-146.25;66.56;52404.69;2070928;28;38287;-72
2023/01/01 04:36:05;;;;;;;7.03;2.75;;;;;;;-146.25;66.82;52368.19;2062608;28;44327;-72
2023/01/01 04:37:06;;;;;;;8.13;2.50;;;;;;;-146.25;67.06;52414.84;2070933;28;38254;-72
2023/01/01 04:38:13;;;;;;;5.30;1.88;;;;;;;-146.25;66.96;52390.50;2078914;28;42278;-72
2023/01/01 04:39:17;;;;;;;9.35;2.63;;;;;;;-146.25;66.95;52374.28;2078920;28;29981;-72
2023/01/01 04:40:19;;;;;;;10.63;2.50;;;;;;;-146.25;66.82;52396.59;2078551;28;40486;-72
2023/01/01 04:41:21;;;;;;;7.07;2.40;;;;;;;-146.25;66.10;52429.03;2079761;28;39743;-72
2023/01/01 04:42:23;;;;;;;6.97;2.50;;;;;;;-146.25;66.47;52418.88;2080333;28;20132;-72
2023/01/01 04:43:25;;;;;;;11.55;2.53;;;;;;;-146.25;66.68;52372.25;2079930;28;40306;-72
2023/01/01 04:44:26;;;;;;;8.43;2.35;;;;;;;-146.25;65.71;52370.22;2080894;28;20038;-72
2023/01/01 04:45:28;;;;;;;7.22;2.53;;;;;;;-146.25;66.25;52380.38;2079698;28;37831;-72
2023/01/01 04:46:30;;;;;;;9.18;2.47;;;;;;;-146.25;65.44;52400.63;2079778;28;40028;-72
2023/01/01 04:47:32;;;;;;;5.90;2.08;;;;;;;-146.25;65.19;52351.97;2079762;28;39536;-72
2023/01/01 04:48:35;;;;;;;6.78;1.92;;;;;;;-146.25;65.22;52392.53;2079572;28;36164;-72
2023/01/01 04:49:36;;;;;;;6.65;2.00;;;;;;;-146.25;65.61;52398.59;2079670;28;40477;-72
2023/01/01 04:50:38;;;;;;;8.65;2.10;;;;;;;-146.25;65.44;52424.97;2079568;28;36674;-72
2023/01/01 04:51:39;;;;;;;8.75;2.17;;;;;;;-146.25;65.66;52404.69;2078714;28;41236;-72
2023/01/01 04:52:42;;;;;;;6.95;1.92;;;;;;;-146.25;65.06;52414.84;2080250;28;20115;-72
2023/01/01 04:53:44;;;;;;;8.38;1.88;;;;;;;-146.25;64.25;52410.78;2070844;28;40945;-72
2023/01/01 04:54:46;;;;;;;4.93;1.60;;;;;;;-146.25;64.08;52376.31;2068837;28;38526;-72
2023/01/01 04:55:47;;;;;;;9.57;1.95;;;;;;;-146.25;64.24;52376.31;2072261;28;38950;-72
2023/01/01 04:56:51;;;;;;;5.22;1.50;;;;;;;-146.25;63.52;52386.44;2079488;28;40255;-72
2023/01/01 04:57:53;;;;;;;12.32;1.90;;;;;;;-146.25;63.42;52406.72;2079653;28;38043;-72
2023/01/01 04:58:57;;;;;;;6.25;1.42;;;;;;;-146.25;63.09;52408.75;2080363;28;20169;-72
2023/01/01 04:59:59;;;;;;;7.60;1.50;;;;;;;-146.25;63.06;52431.06;2079015;28;36558;-72
2023/01/01 05:01:00;;;;;;;7.10;1.50;;;;;;;-146.25;63.07;52427.00;2079891;28;20852;-72
2023/01/01 05:02:02;;;;;;;4.35;1.40;;;;;;;-146.25;63.13;52382.38;2078571;28;35307;-72
2023/01/01 05:03:07;;;;;;;8.70;1.50;;;;;;;-146.25;63.55;52386.44;2079572;28;36809;-72
2023/01/01 05:04:12;;;;;;;6.57;1.40;;;;;;;-146.25;63.14;52392.53;2079060;28;36738;-72
2023/01/01 05:05:14;;;;;;;6.05;1.42;;;;;;;-146.25;63.18;52388.47;2078919;28;42990;-72
2023/01/01 05:06:16;;;;;;;6.90;1.48;;;;;;;-146.25;63.46;52408.75;2071874;28;20054;-71
2023/01/01 05:07:18;;;;;;;7.85;1.60;;;;;;;-146.25;62.80;52404.69;2070835;28;38648;-71
2023/01/01 05:08:20;;;;;;;6.18;1.83;;;;;;;-146.25;63.50;52416.84;2079888;28;36802;-71
2023/01/01 05:09:23;;;;;;;4.55;1.17;;;;;;;-146.25;63.41;52392.53;2079634;28;37856;-72
2023/01/01 05:10:28;;;;;;;7.40;1.35;;;;;;;-146.25;63.53;52396.59;2079434;28;41884;-72
2023/01/01 05:11:30;;;;;;;3.90;1.40;;;;;;;-146.25;63.83;52368.19;2079566;28;21262;-72
2023/01/01 05:12:32;;;;;;;8.85;1.67;;;;;;;-146.25;63.64;52374.28;2078272;28;39670;-72
2023/01/01 05:13:35;;;;;;;4.82;1.20;;;;;;;-146.25;63.81;52376.31;2070872;28;38565;-72
2023/01/01 05:14:37;;;;;;;5.03;1.40;;;;;;;-146.25;63.51;52404.69;2071503;28;20035;-72
2023/01/01 05:15:39;;;;;;;10.98;1.48;;;;;;;-146.25;63.57;52398.59;2070915;28;42386;-72